createdAt,value
2019-05-11T00:01:27.205Z,96.10
2019-05-11T00:05:31.842Z,96.00
2019-05-11T00:09:36.408Z,96.20
2019-05-11T00:13:40.929Z,96.40
2019-05-11T00:17:45.476Z,96.60
2019-05-11T00:21:50.232Z,97.20
2019-05-11T00:25:54.871Z,97.20
2019-05-11T00:29:59.439Z,97.10
2019-05-11T00:34:04.005Z,97.20
2019-05-11T00:38:08.682Z,96.90
2019-05-11T00:42:13.310Z,96.90
2019-05-11T00:46:17.938Z,97.10
2019-05-11T00:50:36.814Z,97.00
2019-05-11T00:54:28.807Z,96.90
2019-05-11T00:58:33.335Z,97.10
2019-05-11T01:02:38.007Z,96.90
2019-05-11T01:06:42.683Z,97.00
2019-05-11T01:10:47.381Z,97.00
2019-05-11T01:14:52.112Z,97.10
2019-05-11T01:18:56.667Z,96.90
2019-05-11T01:23:01.317Z,97.00
2019-05-11T01:27:06.031Z,96.90
2019-05-11T01:31:10.698Z,96.80
2019-05-11T01:35:15.389Z,97.00
2019-05-11T01:39:19.982Z,97.30
2019-05-11T01:43:24.556Z,97.20
2019-05-11T01:47:29.067Z,97.00
2019-05-11T01:51:33.616Z,97.40
2019-05-11T01:55:38.158Z,97.50
2019-05-11T01:59:42.715Z,97.60
2019-05-11T02:03:47.330Z,97.40
2019-05-11T02:07:51.875Z,97.20
2019-05-11T02:11:56.411Z,96.90
2019-05-11T02:16:00.943Z,97.00
2019-05-11T02:20:06.219Z,96.80
2019-05-11T02:24:10.739Z,97.20
2019-05-11T02:28:15.379Z,97.10
2019-05-11T02:32:19.920Z,97.10
2019-05-11T02:36:24.474Z,96.90
2019-05-11T02:40:29.208Z,96.70
2019-05-11T02:44:33.747Z,96.80
2019-05-11T02:48:38.469Z,97.10
2019-05-11T02:52:43.259Z,97.20
2019-05-11T02:56:47.890Z,97.10
2019-05-11T03:00:52.596Z,97.20
2019-05-11T03:04:57.236Z,97.00
2019-05-11T03:09:01.838Z,97.10
2019-05-11T03:13:06.442Z,97.30
2019-05-11T03:17:15.341Z,97.00
2019-05-11T03:21:19.938Z,96.90
2019-05-11T03:25:24.573Z,96.60
2019-05-11T03:29:29.284Z,96.70
2019-05-11T03:33:33.993Z,96.80
2019-05-11T03:37:38.577Z,96.70
2019-05-11T03:41:43.149Z,96.80
2019-05-11T03:45:47.752Z,96.70
2019-05-11T03:49:52.303Z,97.20
2019-05-11T03:53:56.839Z,96.60
2019-05-11T03:58:01.467Z,96.60
2019-05-11T04:02:06.172Z,96.50
2019-05-11T04:06:10.695Z,97.10
2019-05-11T04:10:15.573Z,97.00
2019-05-11T04:14:20.125Z,97.20
2019-05-11T04:18:24.657Z,97.50
2019-05-11T04:22:29.407Z,97.40
2019-05-11T04:26:34.054Z,97.70
2019-05-11T04:30:38.690Z,97.50
2019-05-11T04:34:43.387Z,97.60
2019-05-11T04:38:48.039Z,97.70
2019-05-11T04:42:55.557Z,97.80
2019-05-11T04:46:58.819Z,97.90
2019-05-11T04:51:03.358Z,97.50
2019-05-11T04:55:07.981Z,97.70
2019-05-11T04:59:12.565Z,97.30
2019-05-11T05:03:17.094Z,97.70
2019-05-11T05:07:21.638Z,97.60
2019-05-11T05:11:30.702Z,97.70
2019-05-11T05:15:32.658Z,97.70
2019-05-11T05:19:37.286Z,97.80
2019-05-11T05:23:42.131Z,97.90
2019-05-11T05:27:46.675Z,97.80
2019-05-11T05:31:51.264Z,97.90
2019-05-11T05:35:55.794Z,97.60
2019-05-11T05:40:00.347Z,97.70
2019-05-11T05:44:05.101Z,97.70
2019-05-11T05:48:09.798Z,97.60
2019-05-11T05:52:14.508Z,97.60
2019-05-11T05:56:19.140Z,97.50
2019-05-11T06:00:24.262Z,97.90
2019-05-11T06:04:28.803Z,97.90
2019-05-11T06:08:33.395Z,97.60
2019-05-11T06:12:38.279Z,97.20
2019-05-11T06:16:42.942Z,97.30
2019-05-11T06:20:47.624Z,97.20
2019-05-11T06:24:52.278Z,96.90
2019-05-11T06:28:56.800Z,97.10
2019-05-11T06:33:01.562Z,96.60
2019-05-11T06:37:06.187Z,96.70
2019-05-11T06:41:10.743Z,96.20
2019-05-11T06:45:15.423Z,96.30
2019-05-11T06:49:19.942Z,96.50
2019-05-11T06:53:24.499Z,96.60
2019-05-11T06:57:29.075Z,96.50
2019-05-11T07:01:33.663Z,96.30
2019-05-11T07:05:38.351Z,96.20
2019-05-11T07:09:43.000Z,96.10
2019-05-11T07:13:47.634Z,95.80
2019-05-11T07:17:52.257Z,96.40
2019-05-11T07:21:56.836Z,95.90
2019-05-11T07:26:01.360Z,96.30
2019-05-11T07:30:07.121Z,95.80
2019-05-11T07:34:11.738Z,95.90
2019-05-11T07:38:18.296Z,96.00
2019-05-11T07:42:22.502Z,95.70
2019-05-11T07:46:28.728Z,95.60
2019-05-11T07:50:33.508Z,95.50
2019-05-11T07:54:38.626Z,96.00
2019-05-11T07:58:43.266Z,95.90
2019-05-11T08:02:48.159Z,96.30
2019-05-11T08:06:52.699Z,95.70
2019-05-11T08:10:58.633Z,95.60
2019-05-11T08:15:11.676Z,94.80
2019-05-11T08:19:10.904Z,95.40
2019-05-11T08:23:17.891Z,95.30
2019-05-11T08:27:21.921Z,95.60
2019-05-11T08:31:27.925Z,95.80
2019-05-11T08:35:32.764Z,95.80
2019-05-11T08:39:37.989Z,95.40
2019-05-11T08:43:42.775Z,95.50
2019-05-11T08:47:48.558Z,95.20
2019-05-11T08:51:53.246Z,95.10
2019-05-11T08:55:58.811Z,95.50
2019-05-11T09:00:04.588Z,95.40
2019-05-11T09:04:09.252Z,95.30
2019-05-11T09:08:13.906Z,94.80
2019-05-11T09:12:18.487Z,94.50
2019-05-11T09:16:23.084Z,94.20
2019-05-11T09:20:28.486Z,93.30
2019-05-11T09:24:33.289Z,93.20
2019-05-11T09:28:38.540Z,93.40
2019-05-11T09:32:43.226Z,92.50
2019-05-11T09:36:48.117Z,92.40
2019-05-11T09:40:52.701Z,91.80
2019-05-11T09:44:57.831Z,90.80
2019-05-11T09:49:02.442Z,90.80
2019-05-11T09:53:08.506Z,91.50
2019-05-11T09:57:13.309Z,91.20
2019-05-11T10:01:18.453Z,89.80
2019-05-11T10:05:23.259Z,89.00
2019-05-11T10:09:28.246Z,87.80
2019-05-11T10:13:32.923Z,85.00
2019-05-11T10:17:38.371Z,85.80
2019-05-11T10:21:43.234Z,83.40
2019-05-11T10:25:48.122Z,80.70
2019-05-11T10:29:52.736Z,81.30
2019-05-11T10:33:58.021Z,77.20
2019-05-11T10:38:02.838Z,76.30
2019-05-11T10:42:08.661Z,80.30
2019-05-11T10:46:19.584Z,83.70
2019-05-11T10:50:19.600Z,82.90
2019-05-11T10:54:24.175Z,82.70
2019-05-11T10:58:28.839Z,81.60
2019-05-11T11:02:33.461Z,80.70
2019-05-11T11:06:38.629Z,77.30
2019-05-11T11:10:43.551Z,76.80
2019-05-11T11:14:48.346Z,74.50
2019-05-11T11:18:53.019Z,78.00
2019-05-11T11:22:58.399Z,77.40
2019-05-11T11:27:03.098Z,79.00
2019-05-11T11:31:07.973Z,75.10
2019-05-11T11:35:12.750Z,77.00
2019-05-11T11:39:18.732Z,74.40
2019-05-11T11:43:23.445Z,77.10
2019-05-11T11:47:28.254Z,72.20
2019-05-11T11:51:32.916Z,74.10
2019-05-11T11:55:39.035Z,72.10
2019-05-11T11:59:43.778Z,72.70
2019-05-11T12:03:49.009Z,72.10
2019-05-11T12:07:53.745Z,72.20
2019-05-11T12:11:58.454Z,71.80
2019-05-11T12:16:03.230Z,71.50
2019-05-11T12:20:09.194Z,69.70
2019-05-11T12:24:13.823Z,71.10
2019-05-11T12:28:18.596Z,71.40
2019-05-11T12:32:24.922Z,71.30
2019-05-11T12:36:29.577Z,70.70
2019-05-11T12:40:34.285Z,69.20
2019-05-11T12:44:38.848Z,66.30
2019-05-11T12:48:43.399Z,67.10
2019-05-11T12:52:48.043Z,65.30
2019-05-11T12:56:52.688Z,66.00
2019-05-11T13:00:58.543Z,61.70
2019-05-11T13:05:03.392Z,63.40
2019-05-11T13:09:08.659Z,64.60
2019-05-11T13:13:13.314Z,66.70
2019-05-11T13:17:18.641Z,67.70
2019-05-11T13:21:24.302Z,66.30
2019-05-11T13:25:28.923Z,67.20
2019-05-11T13:29:33.632Z,68.70
2019-05-11T13:33:38.554Z,66.30
2019-05-11T13:37:43.330Z,64.60
2019-05-11T13:41:48.070Z,65.10
2019-05-11T13:45:52.703Z,63.20
2019-05-11T13:49:58.434Z,62.40
2019-05-11T13:54:03.107Z,63.80
2019-05-11T13:58:08.294Z,64.60
2019-05-11T14:02:12.996Z,62.90
2019-05-11T14:06:18.421Z,65.40
2019-05-11T14:10:23.316Z,64.60
2019-05-11T14:14:28.906Z,64.50
2019-05-11T14:18:33.590Z,62.90
2019-05-11T14:22:47.959Z,63.30
2019-05-11T14:26:52.579Z,65.70
2019-05-11T14:30:57.861Z,67.10
2019-05-11T14:35:02.684Z,62.80
2019-05-11T14:39:08.367Z,63.30
2019-05-11T14:43:13.379Z,64.80
2019-05-11T14:47:18.134Z,61.70
2019-05-11T14:51:22.737Z,61.70
2019-05-11T14:55:28.905Z,64.70
2019-05-11T14:59:33.855Z,67.40
2019-05-11T15:03:38.440Z,72.20
2019-05-11T15:07:43.111Z,74.20
2019-05-11T15:11:48.203Z,78.90
2019-05-11T15:15:53.026Z,80.90
2019-05-11T15:19:58.132Z,81.70
2019-05-11T15:24:03.191Z,78.10
2019-05-11T15:28:08.899Z,78.90
2019-05-11T15:32:14.001Z,72.00
2019-05-11T15:36:19.441Z,74.00
2019-05-11T15:40:24.070Z,72.20
2019-05-11T15:44:28.818Z,72.90
2019-05-11T15:48:33.649Z,70.50
2019-05-11T15:52:40.142Z,70.90
2019-05-11T15:56:44.789Z,68.50
2019-05-11T16:00:49.334Z,69.70
2019-05-11T16:04:53.922Z,69.40
2019-05-11T16:08:58.706Z,73.30
2019-05-11T16:13:03.511Z,72.60
2019-05-11T16:17:08.767Z,72.20
2019-05-11T16:21:13.375Z,74.40
2019-05-11T16:25:19.683Z,75.90
2019-05-11T16:29:24.583Z,74.00
2019-05-11T16:33:29.117Z,75.00
2019-05-11T16:37:33.680Z,74.70
2019-05-11T16:41:38.381Z,77.00
2019-05-11T16:45:43.064Z,76.20
2019-05-11T16:49:47.683Z,74.90
2019-05-11T16:53:52.361Z,70.90
2019-05-11T16:57:58.769Z,64.40
2019-05-11T17:02:03.229Z,63.80
2019-05-11T17:06:08.494Z,56.40
2019-05-11T17:10:13.532Z,55.10
2019-05-11T17:14:18.790Z,56.40
2019-05-11T17:18:23.542Z,57.90
2019-05-11T17:22:28.383Z,58.20
2019-05-11T17:26:32.980Z,58.90
2019-05-11T17:30:38.627Z,56.40
2019-05-11T17:34:43.447Z,55.50
2019-05-11T17:38:48.096Z,58.80
2019-05-11T17:42:53.959Z,56.40
2019-05-11T17:46:58.806Z,54.30
2019-05-11T17:51:17.615Z,55.70
2019-05-11T17:55:10.016Z,54.40
2019-05-11T17:59:14.576Z,54.20
2019-05-11T18:03:19.205Z,54.10
2019-05-11T18:07:27.653Z,53.80
2019-05-11T18:11:30.135Z,55.90
2019-05-11T18:15:34.776Z,56.20
2019-05-11T18:19:39.518Z,55.30
2019-05-11T18:23:44.160Z,54.20
2019-05-11T18:27:48.884Z,55.50
2019-05-11T18:31:53.600Z,55.60
2019-05-11T18:35:58.674Z,56.60
2019-05-11T18:40:04.082Z,55.70
2019-05-11T18:44:08.643Z,56.90
2019-05-11T18:48:13.300Z,56.60
2019-05-11T18:52:18.832Z,57.60
2019-05-11T18:56:23.532Z,56.80
2019-05-11T19:00:28.082Z,59.00
2019-05-11T19:04:32.739Z,57.00
2019-05-11T19:08:38.476Z,58.90
2019-05-11T19:12:43.128Z,59.30
2019-05-11T19:16:49.174Z,58.40
2019-05-11T19:20:53.968Z,58.20
2019-05-11T19:24:58.579Z,57.70
2019-05-11T19:29:03.148Z,59.70
2019-05-11T19:33:10.894Z,58.10
2019-05-11T19:37:14.084Z,61.30
2019-05-11T19:41:18.729Z,60.90
2019-05-11T19:45:23.635Z,61.00
2019-05-11T19:49:28.259Z,60.50
2019-05-11T19:53:32.907Z,61.60
2019-05-11T19:57:38.670Z,64.40
2019-05-11T20:01:43.345Z,63.00
2019-05-11T20:05:48.508Z,63.40
2019-05-11T20:09:53.283Z,63.30
2019-05-11T20:13:59.017Z,65.00
2019-05-11T20:18:03.801Z,64.10
2019-05-11T20:22:08.431Z,65.60
2019-05-11T20:26:13.023Z,65.40
2019-05-11T20:30:18.889Z,63.90
2019-05-11T20:34:23.854Z,63.40
2019-05-11T20:38:28.415Z,63.20
2019-05-11T20:42:32.916Z,65.40
2019-05-11T20:46:38.341Z,64.10
2019-05-11T20:50:43.341Z,65.90
2019-05-11T20:54:47.971Z,67.40
2019-05-11T20:58:59.563Z,67.30
2019-05-11T21:03:03.084Z,68.40
2019-05-11T21:07:08.512Z,70.80
2019-05-11T21:11:13.226Z,68.90
2019-05-11T21:15:18.047Z,70.90
2019-05-11T21:19:22.836Z,73.50
2019-05-11T21:23:28.997Z,74.30
2019-05-11T21:27:33.808Z,72.00
2019-05-11T21:31:40.654Z,73.80
2019-05-11T21:35:44.566Z,71.60
2019-05-11T21:39:49.228Z,72.00
2019-05-11T21:43:53.883Z,74.60
2019-05-11T21:47:58.404Z,73.90
2019-05-11T21:52:04.673Z,76.30
2019-05-11T21:56:09.372Z,74.00
2019-05-11T22:00:14.780Z,73.60
2019-05-11T22:04:19.415Z,75.00
2019-05-11T22:08:24.018Z,76.10
2019-05-11T22:12:28.533Z,74.00
2019-05-11T22:16:33.136Z,75.90
2019-05-11T22:20:40.855Z,76.70
2019-05-11T22:24:44.183Z,77.50
2019-05-11T22:28:48.715Z,76.00
2019-05-11T22:32:53.283Z,77.70
2019-05-11T22:36:58.277Z,76.10
2019-05-11T22:41:02.948Z,76.90
2019-05-11T22:45:08.889Z,78.40
2019-05-11T22:49:13.411Z,76.40
2019-05-11T22:53:18.828Z,77.30
2019-05-11T22:57:23.722Z,79.50
2019-05-11T23:01:28.373Z,78.70
2019-05-11T23:05:33.051Z,79.50
2019-05-11T23:09:38.151Z,78.90
2019-05-11T23:13:43.000Z,79.70
2019-05-11T23:17:47.692Z,80.20
2019-05-11T23:21:52.370Z,81.10
2019-05-11T23:25:57.917Z,81.60
2019-05-11T23:30:03.042Z,81.10
2019-05-11T23:34:08.341Z,82.40
2019-05-11T23:38:13.432Z,83.20
2019-05-11T23:42:18.275Z,84.20
2019-05-11T23:46:35.382Z,84.50
2019-05-11T23:50:40.361Z,84.30
2019-05-11T23:54:45.098Z,86.60
2019-05-11T23:58:49.922Z,87.50
